Time;durP1;ratioP1;P1;durP2;ratioP2;P2;SDS_P1;SDS_P2;PMS_P1;PMS_P2;Temp;Humidity;BMP_temperature;BMP_pressure;BME280_temperature;BME280_humidity;BME280_pressure;Samples;Min_cycle;Max_cycle;Signal;HPM_P1;HPM_P2
2021/11/20 00:03:57;;;;;;;18.30;13.40;;;;;;;10.08;75.66;99392.02;214888;1307;139051;-58
2021/11/20 00:09:02;;;;;;;19.10;12.90;;;;;;;10.07;75.55;99394.91;211630;1330;139941;-58
2021/11/20 00:14:07;;;;;;;19.40;13.00;;;;;;;10.06;75.52;99398.86;212265;1322;140607;-58
2021/11/20 00:19:10;;;;;;;17.70;12.30;;;;;;;10.06;75.62;99404.19;212308;1328;140223;-57
2021/11/20 00:24:28;;;;;;;17.10;12.10;;;;;;;10.08;75.56;99401.63;212017;1325;140494;-59
2021/11/20 00:29:39;;;;;;;17.50;12.60;;;;;;;10.10;75.58;99398.67;212312;1322;141095;-57
2021/11/20 00:34:46;;;;;;;15.40;11.70;;;;;;;10.09;75.47;99385.77;211751;1331;139140;-56
2021/11/20 00:39:50;;;;;;;21.00;13.40;;;;;;;10.08;75.45;99384.38;211921;1325;142188;-58
2021/11/20 00:44:53;;;;;;;22.20;12.90;;;;;;;10.09;75.36;99375.84;212627;1322;139508;-58
2021/11/20 00:49:57;;;;;;;13.40;9.80;;;;;;;10.08;75.37;99373.77;212158;1325;139935;-61
2021/11/20 00:55:01;;;;;;;17.80;11.70;;;;;;;10.07;75.28;99366.73;212140;1326;140205;-59
2021/11/20 01:00:08;;;;;;;17.40;12.20;;;;;;;10.08;75.50;99366.83;212236;1325;139333;-59
2021/11/20 01:05:13;;;;;;;16.50;9.70;;;;;;;10.08;74.87;99369.84;212257;1330;139412;-59
2021/11/20 01:10:21;;;;;;;14.20;10.40;;;;;;;10.10;75.15;99367.43;212074;1325;139119;-60
2021/11/20 01:15:31;;;;;;;15.90;10.80;;;;;;;10.10;75.11;99366.02;211983;1324;140384;-61
2021/11/20 01:20:35;;;;;;;13.10;9.50;;;;;;;10.10;74.93;99363.03;211921;1332;140591;-60
2021/11/20 01:25:39;;;;;;;15.30;10.00;;;;;;;10.12;74.95;99359.34;212884;1322;140035;-57
2021/11/20 01:31:06;;;;;;;15.30;10.20;;;;;;;10.13;74.79;99339.98;211860;1329;139443;-59
2021/11/20 01:36:19;;;;;;;15.00;9.20;;;;;;;10.13;74.69;99321.38;212206;1322;140781;-59
2021/11/20 01:41:26;;;;;;;17.10;9.00;;;;;;;10.13;74.67;99327.41;211959;1331;140751;-58
2021/11/20 01:47:14;;;;;;;12.30;8.40;;;;;;;10.12;74.65;99325.66;211784;1334;139406;-57
2021/11/20 01:52:45;;;;;;;14.70;7.50;;;;;;;10.12;74.40;99312.37;212695;1325;152672;-58
2021/11/20 01:58:04;;;;;;;12.90;7.30;;;;;;;10.14;74.46;99304.27;211915;1328;140055;-58
2021/11/20 02:03:32;;;;;;;12.50;7.90;;;;;;;10.17;74.43;99312.79;212707;1323;139558;-60
2021/11/20 02:08:56;;;;;;;15.50;7.10;;;;;;;10.20;74.25;99306.30;211790;1331;140015;-59
2021/11/20 02:14:00;;;;;;;11.50;7.20;;;;;;;10.18;74.05;99297.50;212112;1325;140478;-59
2021/11/20 02:19:10;;;;;;;12.70;6.80;;;;;;;10.16;74.17;99294.80;212104;1325;139274;-56
2021/11/20 02:24:14;;;;;;;10.70;6.00;;;;;;;10.16;74.08;99289.08;212121;1330;139715;-56
2021/11/20 02:29:46;;;;;;;10.50;5.90;;;;;;;10.17;73.99;99293.31;211751;1335;139294;-57
2021/11/20 02:35:08;;;;;;;11.30;5.70;;;;;;;10.21;73.85;99292.76;212603;1323;139482;-58
2021/11/20 02:40:12;;;;;;;8.10;5.50;;;;;;;10.24;73.65;99296.30;212129;1324;140102;-58
2021/11/20 02:45:23;;;;;;;9.50;5.30;;;;;;;10.25;73.60;99299.27;212301;1322;139206;-57
2021/11/20 02:50:50;;;;;;;11.70;5.00;;;;;;;10.27;73.59;99299.13;212027;1325;139195;-58
2021/11/20 02:55:53;;;;;;;;;;;;;;;10.29;73.25;99296.58;212127;1330;139239;-59
2021/11/20 03:01:06;;;;;;;11.00;6.20;;;;;;;10.29;73.22;99298.90;212085;1331;125618;-57
2021/11/20 03:06:12;;;;;;;9.00;4.90;;;;;;;10.28;73.61;99298.76;212503;1321;139012;-56
2021/11/20 03:11:18;;;;;;;9.20;5.70;;;;;;;10.30;73.31;99313.89;212607;1325;140630;-59
2021/11/20 03:16:24;;;;;;;10.50;6.10;;;;;;;10.32;73.22;99312.33;212333;1324;167125;-61
2021/11/20 03:21:28;;;;;;;8.80;5.00;;;;;;;10.33;72.95;99324.71;212230;1324;139761;-58
2021/11/20 03:26:31;;;;;;;7.60;4.70;;;;;;;10.35;73.13;99329.36;212438;1325;139803;-58
2021/11/20 03:31:35;;;;;;;7.00;5.00;;;;;;;10.37;73.25;99330.70;211976;1328;139384;-59
2021/11/20 03:36:40;;;;;;;9.40;5.50;;;;;;;10.38;72.86;99323.22;211752;1325;139113;-59
2021/11/20 03:41:48;;;;;;;10.50;5.40;;;;;;;10.36;72.96;99334.80;211514;1333;139383;-59
2021/11/20 03:46:52;;;;;;;10.10;5.30;;;;;;;10.38;72.63;99347.64;211973;1326;140309;-58
2021/11/20 03:51:58;;;;;;;10.70;5.50;;;;;;;10.45;72.63;99353.11;211939;1326;139656;-59
2021/11/20 03:57:02;;;;;;;10.80;5.40;;;;;;;10.47;72.74;99366.85;212745;1323;139957;-59
2021/11/20 04:02:06;;;;;;;10.70;5.90;;;;;;;10.48;72.60;99372.14;211758;1325;139004;-59
2021/11/20 04:07:09;;;;;;;8.90;5.40;;;;;;;10.43;72.43;99371.69;212354;1322;139803;-58
2021/11/20 04:12:12;;;;;;;8.20;5.00;;;;;;;10.41;72.08;99373.23;212046;1328;139686;-58
2021/11/20 04:17:18;;;;;;;10.00;5.30;;;;;;;10.38;72.54;99382.98;211726;1331;138689;-58
2021/11/20 04:22:23;;;;;;;11.80;5.40;;;;;;;10.34;72.47;99384.41;211801;1322;143082;-58
2021/11/20 04:27:27;;;;;;;7.90;4.60;;;;;;;10.33;72.52;99385.55;212082;1332;139019;-57
2021/11/20 04:32:45;;;;;;;12.90;5.20;;;;;;;10.33;72.65;99383.39;211939;1325;138875;-59
2021/11/20 04:37:48;;;;;;;11.70;5.90;;;;;;;10.30;72.46;99379.52;212222;1328;139364;-57
2021/11/20 04:42:52;;;;;;;9.60;5.10;;;;;;;10.23;72.45;99370.64;211519;1327;140365;-56
2021/11/20 04:47:57;;;;;;;254.40;193.10;;;;;;;10.17;72.88;99378.92;211795;1325;139003;-58
2021/11/20 04:53:11;;;;;;;11.60;7.10;;;;;;;10.29;73.12;99391.80;212224;1323;143534;-58
2021/11/20 04:58:15;;;;;;;11.70;6.30;;;;;;;10.34;72.84;99396.66;212282;1323;139899;-60
2021/11/20 05:03:21;;;;;;;7.20;5.30;;;;;;;10.33;72.76;99389.45;211879;1331;139466;-58
2021/11/20 05:08:26;;;;;;;8.80;5.70;;;;;;;10.28;72.94;99388.47;211782;1329;139036;-57
2021/11/20 05:13:36;;;;;;;9.10;5.80;;;;;;;10.18;72.66;99383.84;211914;1330;141270;-58
2021/11/20 05:18:40;;;;;;;9.20;5.70;;;;;;;10.12;72.52;99387.20;211802;1325;140146;-59
2021/11/20 05:23:50;;;;;;;24.50;20.20;;;;;;;10.08;72.72;99397.15;212180;1325;140053;-58
2021/11/20 05:34:10;;;;;;;11.10;6.30;;;;;;;10.12;73.00;99410.95;212164;1325;139706;-58
2021/11/20 05:39:13;;;;;;;9.10;5.90;;;;;;;10.07;73.28;99419.22;212173;1325;140494;-58
2021/11/20 05:44:17;;;;;;;10.80;7.20;;;;;;;10.04;72.88;99417.09;212274;1325;139769;-59
2021/11/20 05:49:33;;;;;;;14.30;8.20;;;;;;;10.00;73.22;99422.23;211903;1332;140161;-57
2021/11/20 05:54:40;;;;;;;14.10;8.00;;;;;;;9.94;72.76;99422.40;212591;1329;139566;-58
2021/11/20 06:00:03;;;;;;;13.40;8.90;;;;;;;9.93;73.18;99419.26;212234;1328;139505;-59
2021/11/20 06:05:10;;;;;;;13.30;8.90;;;;;;;9.89;73.32;99420.34;212011;1329;138665;-57
2021/11/20 06:10:14;;;;;;;11.90;8.90;;;;;;;9.86;73.30;99425.63;212038;1325;139013;-56
2021/11/20 06:15:18;;;;;;;12.60;9.50;;;;;;;9.84;73.34;99443.27;212009;1331;140828;-58
2021/11/20 06:20:21;;;;;;;16.00;8.50;;;;;;;9.87;73.22;99450.41;211886;1331;139849;-61
2021/11/20 06:25:25;;;;;;;13.50;8.80;;;;;;;9.87;73.36;99454.65;211703;1332;139794;-57
2021/11/20 06:30:28;;;;;;;12.00;9.10;;;;;;;9.88;73.48;99471.45;211876;1332;139440;-62
2021/11/20 06:35:34;;;;;;;11.60;8.10;;;;;;;9.88;73.41;99470.02;211804;1325;139602;-59
2021/11/20 06:41:00;;;;;;;15.20;9.30;;;;;;;9.93;73.91;99471.17;212102;1329;139437;-59
2021/11/20 06:46:07;;;;;;;12.40;8.80;;;;;;;9.95;73.53;99485.24;212276;1328;139314;-60
2021/11/20 06:51:13;;;;;;;14.10;8.60;;;;;;;10.00;73.82;99490.70;212368;1325;138915;-58
2021/11/20 06:56:27;;;;;;;12.60;8.40;;;;;;;10.07;73.76;99488.52;212228;1332;140338;-58
2021/11/20 07:02:42;;;;;;;14.30;8.90;;;;;;;10.14;73.71;99497.70;211838;1331;151107;-57
2021/11/20 07:07:47;;;;;;;13.90;9.30;;;;;;;10.12;73.42;99510.04;212334;1325;139634;-60
2021/11/20 07:12:52;;;;;;;14.40;9.20;;;;;;;10.10;73.71;99510.55;211984;1329;139279;-59
2021/11/20 07:17:57;;;;;;;13.80;9.50;;;;;;;10.11;73.48;99505.30;211951;1326;140419;-61
2021/11/20 07:23:19;;;;;;;15.70;10.70;;;;;;;10.11;73.78;99515.45;212294;1325;139192;-62
2021/11/20 07:28:23;;;;;;;16.30;8.90;;;;;;;10.12;73.49;99521.42;211774;1331;139843;-61
2021/11/20 07:33:26;;;;;;;14.70;9.60;;;;;;;10.14;73.50;99517.08;212162;1331;140290;-61
2021/11/20 07:38:39;;;;;;;16.00;10.50;;;;;;;10.16;73.59;99522.95;212013;1324;139669;-60
2021/11/20 07:43:42;;;;;;;13.90;9.50;;;;;;;10.17;73.80;99522.90;211945;1331;139813;-61
2021/11/20 07:48:51;;;;;;;14.00;10.10;;;;;;;10.22;73.60;99527.64;211704;1331;141207;-60
2021/11/20 07:53:55;;;;;;;14.40;10.30;;;;;;;10.27;73.44;99527.23;211967;1325;139462;-63
2021/11/20 07:58:59;;;;;;;15.50;9.70;;;;;;;10.30;73.45;99526.50;212138;1328;139702;-60
2021/11/20 08:04:03;;;;;;;17.20;9.00;;;;;;;10.36;73.70;99518.77;211980;1330;139864;-60
2021/11/20 08:09:19;;;;;;;13.00;8.90;;;;;;;10.41;73.49;99517.79;211836;1333;139330;-60
2021/11/20 08:14:38;;;;;;;11.70;8.40;;;;;;;10.43;73.10;99523.15;211947;1331;139994;-60
2021/11/20 08:19:41;;;;;;;14.80;9.70;;;;;;;10.45;73.47;99529.27;211846;1328;235621;-59
2021/11/20 08:25:09;;;;;;;13.10;9.70;;;;;;;10.50;73.21;99526.03;211629;1336;139567;-60
2021/11/20 08:30:16;;;;;;;18.80;10.70;;;;;;;10.51;73.38;99530.35;212022;1328;138889;-58
2021/11/20 08:35:28;;;;;;;14.80;9.40;;;;;;;10.56;73.27;99533.81;212155;1328;139156;-60
2021/11/20 08:41:04;;;;;;;13.70;9.60;;;;;;;10.61;73.10;99529.67;211915;1334;139469;-61
2021/11/20 08:46:09;;;;;;;15.20;10.40;;;;;;;10.65;73.27;99526.57;212298;1327;140707;-58
2021/11/20 08:51:19;;;;;;;14.20;9.90;;;;;;;10.73;73.21;99533.80;211816;1330;141155;-59
2021/11/20 08:56:25;;;;;;;16.10;10.30;;;;;;;10.78;73.09;99537.05;212310;1330;139550;-61
2021/11/20 09:01:45;;;;;;;14.20;9.70;;;;;;;10.84;72.92;99538.16;212060;1329;139715;-58
2021/11/20 09:07:19;;;;;;;15.10;10.50;;;;;;;10.90;72.91;99536.23;211736;1330;139083;-59
2021/11/20 09:12:31;;;;;;;14.00;9.90;;;;;;;10.94;72.86;99538.13;211863;1330;139684;-59
2021/11/20 09:17:36;;;;;;;16.90;10.30;;;;;;;10.96;72.62;99537.35;211893;1323;139606;-60
2021/11/20 09:22:41;;;;;;;13.70;9.40;;;;;;;10.97;72.50;99532.83;212375;1323;139963;-59
2021/11/20 09:28:13;;;;;;;19.50;10.10;;;;;;;10.97;72.52;99526.09;212075;1324;139310;-59
2021/11/20 09:33:21;;;;;;;15.20;10.50;;;;;;;11.02;72.62;99528.46;211905;1333;139490;-62
2021/11/20 09:38:25;;;;;;;15.70;10.30;;;;;;;11.08;72.72;99525.08;212061;1324;140826;-61
2021/11/20 09:43:35;;;;;;;17.10;9.90;;;;;;;11.17;72.85;99522.85;212086;1331;139268;-60
2021/11/20 09:48:43;;;;;;;13.80;9.50;;;;;;;11.27;72.40;99514.59;212274;1329;138919;-60
2021/11/20 09:53:54;;;;;;;20.10;10.50;;;;;;;11.40;72.18;99507.12;212395;1326;140820;-59
2021/11/20 09:59:05;;;;;;;12.80;9.30;;;;;;;11.53;72.34;99499.96;212159;1328;139276;-60
2021/11/20 10:04:18;;;;;;;176.00;121.70;;;;;;;11.63;72.11;99497.75;212866;1327;139513;-58
2021/11/20 10:09:21;;;;;;;14.30;9.30;;;;;;;11.74;71.83;99482.70;212270;1326;140813;-54
2021/11/20 10:14:33;;;;;;;14.00;8.50;;;;;;;11.84;71.59;99482.66;211807;1325;140235;-60
2021/11/20 10:19:55;;;;;;;13.50;8.10;;;;;;;12.03;71.58;99476.18;211722;1325;140125;-60
2021/11/20 10:25:17;;;;;;;15.70;9.10;;;;;;;12.06;71.27;99479.91;211979;1331;139531;-60
2021/11/20 10:30:26;;;;;;;16.90;8.40;;;;;;;12.13;70.99;99475.09;212295;1328;139257;-60
2021/11/20 10:35:32;;;;;;;9.60;7.00;;;;;;;12.21;70.78;99469.57;212213;1324;139413;-59
2021/11/20 10:40:47;;;;;;;129.60;85.80;;;;;;;12.25;70.64;99455.42;212368;1326;140103;-59
2021/11/20 10:46:07;;;;;;;28.00;14.20;;;;;;;12.33;70.61;99446.27;211811;1328;140369;-60
2021/11/20 10:51:25;;;;;;;11.10;7.80;;;;;;;12.37;70.33;99452.17;212024;1325;139728;-59
2021/11/20 10:57:06;;;;;;;11.60;7.60;;;;;;;12.38;69.99;99449.86;212034;1325;139497;-59
2021/11/20 11:02:27;;;;;;;12.20;6.70;;;;;;;12.39;69.85;99448.34;212483;1328;139945;-57
2021/11/20 11:07:38;;;;;;;13.40;6.50;;;;;;;12.45;69.90;99448.33;211449;1332;140066;-59
2021/11/20 11:12:56;;;;;;;8.30;6.40;;;;;;;12.46;69.68;99453.04;212615;1325;238058;-60
2021/11/20 11:18:32;;;;;;;12.90;7.40;;;;;;;12.45;69.70;99448.54;211851;1332;139199;-60
2021/11/20 11:23:59;;;;;;;12.20;7.40;;;;;;;12.40;69.48;99448.26;211977;1324;138887;-61
2021/11/20 11:29:28;;;;;;;12.40;8.20;;;;;;;12.26;69.51;99449.00;212129;1324;139827;-60
2021/11/20 11:34:38;;;;;;;13.80;10.20;;;;;;;12.19;69.76;99456.22;211646;1337;139402;-58
2021/11/20 11:39:57;;;;;;;16.10;9.60;;;;;;;12.14;69.64;99451.73;212227;1323;139498;-58
2021/11/20 11:45:22;;;;;;;14.00;9.90;;;;;;;12.01;69.66;99441.42;212428;1322;139452;-60
2021/11/20 11:51:14;;;;;;;16.10;9.80;;;;;;;11.95;69.81;99433.67;212046;1329;139810;-58
2021/11/20 11:56:58;;;;;;;12.00;9.30;;;;;;;11.89;70.14;99433.48;211727;1334;139370;-59
2021/11/20 12:02:02;;;;;;;10.40;7.40;;;;;;;11.79;70.17;99427.49;212289;1322;140651;-59
2021/11/20 12:07:24;;;;;;;11.50;7.80;;;;;;;11.71;70.10;99424.61;212112;1322;140222;-59
2021/11/20 12:12:33;;;;;;;10.80;7.60;;;;;;;11.62;70.51;99417.65;211974;1328;139062;-61
2021/11/20 12:18:00;;;;;;;9.30;7.10;;;;;;;11.60;70.53;99413.00;212495;1322;139477;-59
2021/11/20 12:23:34;;;;;;;10.00;7.60;;;;;;;11.50;70.90;99408.10;212664;1321;139521;-59
2021/11/20 12:29:25;;;;;;;12.70;9.20;;;;;;;11.41;70.56;99406.13;211944;1323;139482;-58
2021/11/20 12:34:43;;;;;;;14.00;9.60;;;;;;;11.35;71.37;99399.36;212300;1323;139325;-57
2021/11/20 12:39:58;;;;;;;13.00;9.20;;;;;;;11.26;71.55;99389.64;212070;1328;139527;-58
2021/11/20 12:45:03;;;;;;;14.10;9.70;;;;;;;11.19;71.55;99387.04;212334;1326;140144;-61
2021/11/20 12:50:21;;;;;;;;;;;;;;;11.09;71.78;99381.25;211923;1327;139423;-60
2021/11/20 12:55:33;;;;;;;16.50;11.60;;;;;;;11.02;71.92;99381.80;212248;1323;125998;-59
2021/11/20 13:00:39;;;;;;;13.10;10.60;;;;;;;10.99;72.11;99376.64;212356;1322;140562;-57
2021/11/20 13:05:46;;;;;;;15.10;10.90;;;;;;;11.00;72.33;99372.70;211935;1328;139816;-57
2021/11/20 13:10:58;;;;;;;13.70;11.00;;;;;;;11.01;72.50;99367.65;211837;1325;141025;-60
2021/11/20 13:16:09;;;;;;;15.70;12.10;;;;;;;11.04;72.71;99356.45;212571;1322;141353;-59
2021/11/20 13:21:26;;;;;;;15.10;11.40;;;;;;;11.08;72.93;99355.73;212525;1325;141029;-59
2021/11/20 13:26:29;;;;;;;14.60;10.60;;;;;;;11.06;72.62;99350.13;212112;1325;140739;-58
2021/11/20 13:31:36;;;;;;;14.00;10.10;;;;;;;11.09;72.79;99347.81;212170;1328;139909;-58
2021/11/20 13:36:39;;;;;;;13.30;10.20;;;;;;;11.14;73.22;99344.86;211930;1325;140091;-59
2021/11/20 13:41:42;;;;;;;12.50;10.50;;;;;;;11.18;73.22;99345.38;212576;1322;139403;-58
2021/11/20 13:46:50;;;;;;;13.20;10.50;;;;;;;11.17;72.96;99347.39;212335;1322;140699;-58
2021/11/20 13:51:55;;;;;;;14.80;9.50;;;;;;;11.09;73.06;99348.52;212164;1325;139587;-59
2021/11/20 13:56:59;;;;;;;;;;;;;;;11.08;72.83;99347.67;211674;1331;141295;-59
2021/11/20 14:02:07;;;;;;;13.40;10.70;;;;;;;11.05;73.01;99347.69;212309;1322;126007;-57
2021/11/20 14:07:12;;;;;;;12.90;10.80;;;;;;;11.02;72.92;99348.08;212391;1324;139038;-58
2021/11/20 14:12:17;;;;;;;13.70;10.80;;;;;;;11.02;73.24;99340.77;212174;1325;139550;-59
2021/11/20 14:17:20;;;;;;;13.90;11.00;;;;;;;11.02;73.38;99339.52;211979;1322;138958;-59
2021/11/20 14:22:24;;;;;;;14.40;10.20;;;;;;;11.03;73.62;99338.06;212118;1325;140168;-58
2021/11/20 14:27:31;;;;;;;14.30;9.70;;;;;;;11.03;73.17;99339.48;212760;1325;140175;-60
2021/11/20 14:32:34;;;;;;;12.90;9.10;;;;;;;11.00;73.42;99336.10;212195;1326;139276;-57
2021/11/20 14:37:37;;;;;;;335.80;231.00;;;;;;;11.00;73.64;99335.37;212093;1325;140852;-57
2021/11/20 14:42:45;;;;;;;18.60;13.00;;;;;;;11.04;73.98;99329.09;212121;1328;140023;-58
2021/11/20 14:47:52;;;;;;;13.50;9.60;;;;;;;11.03;73.56;99322.41;212063;1328;139978;-59
2021/11/20 14:53:07;;;;;;;15.60;10.40;;;;;;;10.98;73.38;99323.81;212448;1324;140117;-58
2021/11/20 14:58:14;;;;;;;14.60;10.30;;;;;;;10.95;73.75;99328.42;212634;1324;139681;-59
2021/11/20 15:03:17;;;;;;;14.80;10.60;;;;;;;10.93;73.62;99327.49;212127;1322;139999;-57
2021/11/20 15:08:20;;;;;;;13.90;10.20;;;;;;;10.89;73.67;99325.01;212029;1324;140105;-58
2021/11/20 15:13:24;;;;;;;13.60;10.30;;;;;;;10.86;73.66;99321.86;211523;1324;140474;-56
2021/11/20 15:18:27;;;;;;;15.50;11.30;;;;;;;10.85;73.65;99322.45;211847;1325;139979;-59
2021/11/20 15:23:31;;;;;;;22.90;15.60;;;;;;;10.93;74.19;99321.95;212427;1324;139293;-58
2021/11/20 15:28:35;;;;;;;17.90;11.20;;;;;;;11.01;73.99;99312.80;211916;1331;139786;-58
2021/11/20 15:33:38;;;;;;;14.50;10.80;;;;;;;10.92;73.70;99307.66;212350;1324;140199;-58
2021/11/20 15:38:41;;;;;;;20.20;12.70;;;;;;;10.84;73.49;99306.36;211639;1331;139307;-59
2021/11/20 15:43:44;;;;;;;19.20;14.10;;;;;;;10.78;73.81;99304.40;212464;1324;140958;-59
2021/11/20 15:48:47;;;;;;;21.70;14.90;;;;;;;10.73;73.89;99304.30;212129;1321;139743;-57
2021/11/20 15:53:50;;;;;;;19.40;14.10;;;;;;;10.70;73.44;99302.37;212174;1325;139698;-56
2021/11/20 15:58:53;;;;;;;74.80;62.90;;;;;;;10.71;73.62;99298.77;211862;1329;139883;-56
2021/11/20 16:03:57;;;;;;;25.90;17.10;;;;;;;10.81;74.16;99293.93;212049;1328;140568;-59
2021/11/20 16:09:00;;;;;;;21.00;15.00;;;;;;;10.87;74.20;99290.00;211664;1335;139359;-60
2021/11/20 16:14:03;;;;;;;23.70;15.30;;;;;;;10.78;73.76;99290.02;212549;1325;139640;-59
2021/11/20 16:19:06;;;;;;;22.60;15.70;;;;;;;10.75;74.18;99286.50;212840;1322;140243;-58
2021/11/20 16:24:09;;;;;;;23.80;16.20;;;;;;;10.72;73.92;99282.23;212161;1325;140687;-57
2021/11/20 16:29:12;;;;;;;28.30;18.20;;;;;;;10.71;73.78;99279.61;212253;1323;140006;-58
2021/11/20 16:34:15;;;;;;;27.20;17.90;;;;;;;10.72;73.84;99274.23;212164;1328;140777;-57
2021/11/20 16:39:18;;;;;;;23.40;16.40;;;;;;;10.81;74.35;99265.88;211935;1322;140036;-58
2021/11/20 16:44:22;;;;;;;23.80;16.50;;;;;;;10.84;73.70;99264.06;212514;1328;142864;-57
2021/11/20 16:49:25;;;;;;;23.40;17.20;;;;;;;10.88;73.69;99261.02;211910;1327;139636;-58
2021/11/20 16:54:28;;;;;;;23.80;17.30;;;;;;;10.89;73.73;99249.42;212091;1325;139179;-57
2021/11/20 16:59:31;;;;;;;23.50;16.30;;;;;;;10.89;73.42;99245.13;211747;1329;139731;-56
2021/11/20 17:04:34;;;;;;;23.60;15.50;;;;;;;10.89;73.82;99236.98;212399;1322;139739;-59
2021/11/20 17:09:38;;;;;;;23.00;15.70;;;;;;;10.90;73.62;99232.34;211884;1329;139942;-57
2021/11/20 17:14:41;;;;;;;25.00;16.60;;;;;;;10.91;73.48;99230.13;211643;1334;140005;-57
2021/11/20 17:19:44;;;;;;;23.80;16.50;;;;;;;10.91;73.25;99221.63;212081;1325;139312;-57
2021/11/20 17:24:47;;;;;;;22.20;15.10;;;;;;;10.93;73.18;99212.45;212163;1326;139441;-58
2021/11/20 17:29:50;;;;;;;23.90;16.00;;;;;;;10.88;73.30;99202.42;212159;1323;140389;-55
2021/11/20 17:34:54;;;;;;;22.50;14.70;;;;;;;10.86;73.08;99196.02;211662;1331;141033;-58
2021/11/20 17:39:56;;;;;;;23.10;16.10;;;;;;;10.88;73.33;99196.75;212292;1329;139954;-58
2021/11/20 17:45:00;;;;;;;26.00;17.80;;;;;;;10.94;73.09;99193.91;212400;1326;138892;-57
2021/11/20 17:50:05;;;;;;;92.10;64.60;;;;;;;11.01;73.46;99186.05;212454;1324;140492;-56
2021/11/20 17:55:09;;;;;;;51.30;30.40;;;;;;;11.17;73.81;99174.92;212853;1322;139179;-57
2021/11/20 18:00:13;;;;;;;30.20;20.90;;;;;;;11.29;73.26;99163.52;212872;1322;138914;-56
2021/11/20 18:05:17;;;;;;;30.10;21.10;;;;;;;11.26;72.91;99158.36;212115;1322;140617;-56
2021/11/20 18:10:21;;;;;;;35.00;22.70;;;;;;;11.20;72.74;99160.21;212557;1322;140596;-57
2021/11/20 18:15:25;;;;;;;110.60;84.70;;;;;;;11.19;73.07;99157.20;211885;1322;139069;-56
2021/11/20 18:20:28;;;;;;;37.50;25.60;;;;;;;11.33;73.34;99156.69;212453;1323;139818;-56
2021/11/20 18:25:32;;;;;;;33.50;24.70;;;;;;;11.32;72.77;99152.81;212278;1324;140523;-55
2021/11/20 18:30:37;;;;;;;32.20;22.30;;;;;;;11.21;72.70;99142.72;212388;1323;139280;-56
2021/11/20 18:35:42;;;;;;;31.90;21.70;;;;;;;11.15;72.58;99141.54;212688;1326;140460;-57
2021/11/20 18:40:45;;;;;;;30.80;21.80;;;;;;;11.07;72.58;99138.58;212555;1322;140030;-57
2021/11/20 18:45:49;;;;;;;29.70;20.50;;;;;;;11.00;72.34;99129.81;212204;1325;139567;-56
2021/11/20 18:50:57;;;;;;;29.10;19.90;;;;;;;10.97;72.62;99123.30;212153;1330;139194;-55
2021/11/20 18:56:01;;;;;;;23.10;15.60;;;;;;;10.98;72.37;99122.48;211522;1337;139623;-58
2021/11/20 19:01:04;;;;;;;22.70;16.10;;;;;;;11.02;72.54;99115.16;212188;1328;141229;-56
2021/11/20 19:06:11;;;;;;;81.60;59.40;;;;;;;11.04;72.42;99115.16;212101;1327;140821;-58
2021/11/20 19:11:14;;;;;;;20.70;15.40;;;;;;;11.18;72.76;99118.76;212585;1322;139787;-57
2021/11/20 19:16:17;;;;;;;19.10;13.70;;;;;;;11.20;72.40;99115.27;212154;1328;151393;-57
2021/11/20 19:21:21;;;;;;;15.20;11.00;;;;;;;11.13;72.15;99107.30;212085;1325;140232;-56
2021/11/20 19:26:24;;;;;;;13.70;11.00;;;;;;;11.06;71.67;99103.17;212592;1323;139626;-58
2021/11/20 19:31:30;;;;;;;15.10;11.90;;;;;;;10.96;71.57;99099.86;212416;1324;140401;-58
2021/11/20 19:36:33;;;;;;;14.00;10.20;;;;;;;10.89;71.78;99095.73;212405;1322;140171;-56
2021/11/20 19:41:36;;;;;;;14.80;10.90;;;;;;;10.82;71.53;99086.59;212447;1326;139575;-56
2021/11/20 19:46:40;;;;;;;15.80;10.70;;;;;;;10.79;71.75;99083.55;212295;1325;140601;-56
2021/11/20 19:51:43;;;;;;;13.60;10.10;;;;;;;10.76;71.61;99078.41;212310;1322;139046;-58
2021/11/20 19:56:48;;;;;;;13.40;9.10;;;;;;;10.74;71.72;99073.94;212371;1325;141818;-58
2021/11/20 20:01:51;;;;;;;14.20;9.30;;;;;;;10.76;71.55;99071.49;212090;1326;140093;-58
2021/11/20 20:06:55;;;;;;;13.70;9.80;;;;;;;10.75;71.26;99068.70;212736;1322;139461;-58
2021/11/20 20:11:59;;;;;;;15.90;9.70;;;;;;;10.74;71.43;99061.16;212120;1325;139488;-57
2021/11/20 20:17:08;;;;;;;178.00;113.50;;;;;;;10.74;71.38;99059.75;212431;1322;140233;-58
2021/11/20 20:22:12;;;;;;;14.20;9.90;;;;;;;10.88;71.60;99058.48;212609;1324;140698;-58
2021/11/20 20:27:16;;;;;;;11.50;8.40;;;;;;;10.99;71.84;99054.77;212335;1323;139869;-60
2021/11/20 20:32:19;;;;;;;13.70;9.40;;;;;;;10.97;70.84;99055.98;212575;1322;140257;-59
2021/11/20 20:37:22;;;;;;;12.80;9.20;;;;;;;10.93;71.09;99053.02;211772;1325;139169;-58
2021/11/20 20:42:26;;;;;;;13.20;9.40;;;;;;;10.90;70.67;99052.48;212254;1321;139355;-59
2021/11/20 20:47:31;;;;;;;14.30;8.30;;;;;;;10.86;70.89;99046.88;212096;1327;139530;-59
2021/11/20 20:52:35;;;;;;;13.80;8.90;;;;;;;10.84;70.76;99043.84;212023;1329;139460;-59
2021/11/20 20:57:38;;;;;;;15.70;10.70;;;;;;;10.85;70.44;99038.61;211969;1330;139950;-62
2021/11/20 21:02:41;;;;;;;13.50;10.30;;;;;;;10.83;70.50;99038.20;212277;1329;139167;-60
2021/11/20 21:07:46;;;;;;;18.30;11.40;;;;;;;10.81;70.47;99032.69;211897;1322;138810;-61
2021/11/20 21:12:53;;;;;;;17.20;10.30;;;;;;;10.80;70.72;99034.67;211991;1324;139176;-60
2021/11/20 21:18:04;;;;;;;13.40;9.80;;;;;;;10.82;70.52;99024.64;212388;1325;141295;-58
2021/11/20 21:23:07;;;;;;;15.90;10.50;;;;;;;10.80;70.50;99024.18;212298;1322;139983;-60
2021/11/20 21:28:26;;;;;;;17.40;10.50;;;;;;;10.78;70.40;99016.90;212380;1322;231327;-58
2021/11/20 21:33:29;;;;;;;16.40;11.50;;;;;;;10.74;70.45;99016.09;212060;1331;139727;-57
2021/11/20 21:38:32;;;;;;;16.60;10.50;;;;;;;10.72;70.75;99006.43;212118;1326;139424;-57
2021/11/20 21:43:35;;;;;;;19.10;10.90;;;;;;;10.71;70.48;99000.33;212037;1322;140259;-59
2021/11/20 21:48:39;;;;;;;16.30;10.20;;;;;;;10.67;70.35;98995.95;212879;1324;139305;-59
2021/11/20 21:53:42;;;;;;;18.10;11.20;;;;;;;10.66;70.02;98996.20;212074;1324;140452;-58
2021/11/20 21:58:46;;;;;;;17.90;11.30;;;;;;;10.65;70.65;98994.65;212737;1323;139803;-57
2021/11/20 22:03:49;;;;;;;15.00;10.50;;;;;;;10.59;70.54;98985.77;212629;1325;139452;-58
2021/11/20 22:08:52;;;;;;;14.10;10.70;;;;;;;10.58;70.37;98979.30;212001;1325;139699;-60
2021/11/20 22:13:55;;;;;;;17.00;11.30;;;;;;;10.60;70.42;98967.97;211649;1331;139920;-61
2021/11/20 22:18:58;;;;;;;18.00;10.90;;;;;;;10.66;70.50;98960.17;212233;1326;139839;-59
2021/11/20 22:24:03;;;;;;;16.40;11.10;;;;;;;10.70;70.36;98958.15;212427;1322;139581;-59
2021/11/20 22:29:06;;;;;;;15.80;10.30;;;;;;;10.72;70.29;98950.05;212699;1322;139714;-61
2021/11/20 22:34:09;;;;;;;14.60;10.30;;;;;;;10.70;70.09;98943.95;212732;1328;139411;-61
2021/11/20 22:39:12;;;;;;;13.20;10.30;;;;;;;10.68;69.78;98943.92;212199;1323;140326;-59
2021/11/20 22:44:15;;;;;;;15.30;11.80;;;;;;;10.69;70.00;98940.30;211992;1329;139472;-58
2021/11/20 22:49:19;;;;;;;17.30;11.90;;;;;;;10.66;69.63;98934.98;212048;1326;139679;-60
2021/11/20 22:54:23;;;;;;;17.80;11.30;;;;;;;10.64;69.93;98924.27;212351;1328;140908;-58
2021/11/20 22:59:26;;;;;;;15.50;10.90;;;;;;;10.64;69.88;98924.64;212664;1325;140006;-59
2021/11/20 23:04:29;;;;;;;15.50;11.40;;;;;;;10.65;69.92;98921.71;212754;1322;140079;-62
2021/11/20 23:09:32;;;;;;;18.10;12.40;;;;;;;10.64;69.73;98918.17;212239;1325;139351;-61
2021/11/20 23:14:38;;;;;;;20.00;13.40;;;;;;;10.67;70.04;98911.33;212097;1330;139298;-59
2021/11/20 23:19:42;;;;;;;18.00;12.30;;;;;;;10.71;70.04;98903.97;211949;1331;139817;-62
2021/11/20 23:24:45;;;;;;;20.40;13.50;;;;;;;10.71;70.08;98892.62;212688;1328;139232;-62